RYR7QC LEPA-EPGD
Flight info
| Callsign | RYR7QC |
|---|---|
| Flight time | 2h 44m |
| Altitude | 34000 |
| Route | MEROS DCT LAPIT DCT CHELY/N0426F320 DCT LUMAS/N0432F340 DCT LUSOL DCT OKTET DCT IRMAR DCT KINES DCT VANAS DCT ESOKO DCT GODRA/N0433F350 DCT LADOL DCT TEDGO DCT TIKNI DCT TAMEB DCT DIDGI DCT ALUKA DCT LUXAL L730 KOSEX |
| Aircraft | B738/M-SDE3FGILRWY/SB1 |
Departure
| Time | 2026-05-04 15:18 |
|---|---|
| Airport | Palma de Mallorca Airport (LEPA) |
Arrival
| Time | 2026-05-04 18:02 |
|---|---|
| Airport | Gdańsk Lech Wałęsa Airport (EPGD) |
| Time | Latitude | Longitude | Altitude | Speed | Heading |
|---|---|---|---|---|---|
| 2026-05-04 14:23 | 39.55288 | 2.73296 | 37 ft | 0 kts | 197° |
| 2026-05-04 15:04 | 39.55291 | 2.73297 | 37 ft | 2 kts | 196° |
| 2026-05-04 15:05 | 39.55309 | 2.73303 | 35 ft | 3 kts | 191° |
| 2026-05-04 15:05 | 39.55329 | 2.73307 | 34 ft | 3 kts | 182° |
| 2026-05-04 15:05 | 39.55349 | 2.73306 | 36 ft | 3 kts | 166° |
| 2026-05-04 15:05 | 39.55365 | 2.73298 | 36 ft | 3 kts | 122° |
| 2026-05-04 15:06 | 39.55369 | 2.73288 | 32 ft | 1 kts | 59° |
| 2026-05-04 15:06 | 39.55366 | 2.73282 | 33 ft | 0 kts | 59° |
| 2026-05-04 15:10 | 39.55368 | 2.73286 | 37 ft | 2 kts | 59° |
| 2026-05-04 15:10 | 39.55380 | 2.73312 | 37 ft | 4 kts | 59° |
| 2026-05-04 15:10 | 39.55424 | 2.73406 | 37 ft | 7 kts | 59° |
| 2026-05-04 15:11 | 39.55448 | 2.73457 | 37 ft | 7 kts | 58° |
| 2026-05-04 15:11 | 39.55464 | 2.73491 | 36 ft | 6 kts | 58° |
| 2026-05-04 15:11 | 39.55487 | 2.73540 | 37 ft | 6 kts | 59° |
| 2026-05-04 15:11 | 39.55519 | 2.73573 | 37 ft | 6 kts | 1° |
| 2026-05-04 15:12 | 39.55558 | 2.73549 | 36 ft | 6 kts | 329° |
| 2026-05-04 15:12 | 39.55596 | 2.73520 | 37 ft | 7 kts | 329° |
| 2026-05-04 15:12 | 39.55644 | 2.73505 | 37 ft | 7 kts | 11° |
| 2026-05-04 15:12 | 39.55678 | 2.73552 | 37 ft | 7 kts | 57° |
| 2026-05-04 15:13 | 39.55706 | 2.73611 | 37 ft | 8 kts | 58° |
| 2026-05-04 15:13 | 39.55743 | 2.73688 | 37 ft | 11 kts | 58° |
| 2026-05-04 15:13 | 39.55786 | 2.73779 | 37 ft | 12 kts | 59° |
| 2026-05-04 15:13 | 39.55829 | 2.73871 | 37 ft | 12 kts | 58° |
| 2026-05-04 15:14 | 39.55872 | 2.73961 | 37 ft | 12 kts | 59° |
| 2026-05-04 15:14 | 39.55914 | 2.74051 | 36 ft | 12 kts | 58° |
| 2026-05-04 15:14 | 39.55960 | 2.74147 | 37 ft | 12 kts | 58° |
| 2026-05-04 15:14 | 39.56005 | 2.74240 | 37 ft | 12 kts | 50° |
| 2026-05-04 15:15 | 39.56077 | 2.74294 | 35 ft | 12 kts | 27° |
| 2026-05-04 15:15 | 39.56139 | 2.74335 | 35 ft | 5 kts | 26° |
| 2026-05-04 15:15 | 39.56140 | 2.74336 | 36 ft | 0 kts | 26° |
| 2026-05-04 15:16 | 39.56141 | 2.74337 | 36 ft | 1 kts | 26° |
| 2026-05-04 15:16 | 39.56225 | 2.74293 | 37 ft | 12 kts | 271° |
| 2026-05-04 15:17 | 39.56196 | 2.74199 | 35 ft | 11 kts | 240° |
| 2026-05-04 15:17 | 39.55843 | 2.73455 | 37 ft | 110 kts | 238° |
| 2026-05-04 15:17 | 39.55344 | 2.72393 | 106 ft | 158 kts | 238° |
| 2026-05-04 15:18 | 39.54794 | 2.71198 | 1008 ft | 148 kts | 236° |
| 2026-05-04 15:18 | 39.54261 | 2.70062 | 1818 ft | 150 kts | 237° |
| 2026-05-04 15:18 | 39.53652 | 2.68796 | 2151 ft | 183 kts | 238° |
| 2026-05-04 15:19 | 39.52136 | 2.65654 | 2819 ft | 221 kts | 238° |
| 2026-05-04 15:19 | 39.51273 | 2.63864 | 3102 ft | 244 kts | 237° |
| 2026-05-04 15:19 | 39.49243 | 2.60348 | 4656 ft | 248 kts | 214° |
| 2026-05-04 15:20 | 39.47740 | 2.59231 | 4973 ft | 252 kts | 211° |
| 2026-05-04 15:20 | 39.46131 | 2.58320 | 5495 ft | 258 kts | 191° |
| 2026-05-04 15:20 | 39.44337 | 2.58554 | 6416 ft | 266 kts | 165° |
| 2026-05-04 15:20 | 39.42713 | 2.59762 | 7240 ft | 276 kts | 143° |
| 2026-05-04 15:21 | 39.41541 | 2.61751 | 7982 ft | 292 kts | 119° |
| 2026-05-04 15:21 | 39.41016 | 2.64331 | 8747 ft | 304 kts | 98° |
| 2026-05-04 15:21 | 39.41078 | 2.69918 | 10232 ft | 317 kts | 89° |
| 2026-05-04 15:22 | 39.41214 | 2.72858 | 10519 ft | 340 kts | 89° |
| 2026-05-04 15:22 | 39.41351 | 2.75997 | 10933 ft | 355 kts | 89° |
| 2026-05-04 15:22 | 39.41590 | 2.82465 | 12367 ft | 363 kts | 90° |
| 2026-05-04 15:23 | 39.41693 | 2.85742 | 13115 ft | 367 kts | 90° |
| 2026-05-04 15:23 | 39.41790 | 2.89055 | 13837 ft | 371 kts | 90° |
| 2026-05-04 15:23 | 39.41883 | 2.92405 | 14447 ft | 376 kts | 90° |
| 2026-05-04 15:23 | 39.41974 | 2.95808 | 15044 ft | 381 kts | 90° |
| 2026-05-04 15:24 | 39.42157 | 3.02749 | 16260 ft | 391 kts | 90° |
| 2026-05-04 15:24 | 39.42340 | 3.09873 | 17389 ft | 402 kts | 90° |
| 2026-05-04 15:25 | 39.42433 | 3.13509 | 17977 ft | 408 kts | 90° |
| 2026-05-04 15:25 | 39.42526 | 3.17199 | 18516 ft | 413 kts | 90° |
| 2026-05-04 15:25 | 39.42624 | 3.20922 | 19047 ft | 417 kts | 88° |
| 2026-05-04 15:26 | 39.43973 | 3.28295 | 20058 ft | 428 kts | 66° |
| 2026-05-04 15:26 | 39.45359 | 3.31724 | 20553 ft | 432 kts | 59° |
| 2026-05-04 15:26 | 39.48510 | 3.38455 | 21484 ft | 442 kts | 58° |
| 2026-05-04 15:27 | 39.50127 | 3.41868 | 21945 ft | 447 kts | 58° |
| 2026-05-04 15:27 | 39.53374 | 3.48822 | 22894 ft | 456 kts | 58° |
| 2026-05-04 15:28 | 39.56644 | 3.55937 | 23765 ft | 463 kts | 59° |
| 2026-05-04 15:28 | 39.58291 | 3.59542 | 24144 ft | 466 kts | 59° |
| 2026-05-04 15:28 | 39.61607 | 3.66819 | 24922 ft | 471 kts | 59° |
| 2026-05-04 15:29 | 39.63276 | 3.70487 | 25297 ft | 474 kts | 60° |
| 2026-05-04 15:30 | 39.70042 | 3.85390 | 26742 ft | 484 kts | 60° |
| 2026-05-04 15:30 | 39.75194 | 3.96784 | 27756 ft | 492 kts | 61° |
| 2026-05-04 15:31 | 39.78671 | 4.04499 | 28363 ft | 497 kts | 61° |
| 2026-05-04 15:31 | 39.80422 | 4.08390 | 28701 ft | 499 kts | 61° |
| 2026-05-04 15:32 | 39.86333 | 4.19612 | 29501 ft | 509 kts | 36° |
| 2026-05-04 15:32 | 39.92599 | 4.23390 | 30214 ft | 492 kts | 4° |
| 2026-05-04 15:33 | 39.99340 | 4.24831 | 30800 ft | 493 kts | 3° |
| 2026-05-04 15:34 | 40.09458 | 4.27053 | 31952 ft | 487 kts | 4° |
| 2026-05-04 15:34 | 40.12787 | 4.27832 | 32358 ft | 485 kts | 4° |
| 2026-05-04 15:34 | 40.19426 | 4.29402 | 32999 ft | 485 kts | 4° |
| 2026-05-04 15:35 | 40.26051 | 4.30973 | 33667 ft | 482 kts | 4° |
| 2026-05-04 15:35 | 40.29304 | 4.31744 | 33967 ft | 482 kts | 4° |
| 2026-05-04 15:36 | 40.39321 | 4.34117 | 33925 ft | 484 kts | 4° |
| 2026-05-04 15:36 | 40.45931 | 4.35689 | 33943 ft | 483 kts | 4° |
| 2026-05-04 15:37 | 40.52519 | 4.37256 | 33944 ft | 485 kts | 4° |
| 2026-05-04 15:37 | 40.59187 | 4.38847 | 33929 ft | 488 kts | 4° |
| 2026-05-04 15:38 | 40.65872 | 4.40448 | 33929 ft | 489 kts | 4° |
| 2026-05-04 15:38 | 40.72561 | 4.42053 | 33930 ft | 489 kts | 4° |
| 2026-05-04 15:39 | 40.79255 | 4.43663 | 33925 ft | 489 kts | 4° |
| 2026-05-04 15:40 | 40.89278 | 4.46078 | 33932 ft | 488 kts | 4° |
| 2026-05-04 15:40 | 40.95952 | 4.47689 | 33930 ft | 487 kts | 4° |
| 2026-05-04 15:41 | 41.02607 | 4.49299 | 33930 ft | 486 kts | 4° |
| 2026-05-04 15:41 | 41.09253 | 4.50910 | 33933 ft | 486 kts | 4° |
| 2026-05-04 15:42 | 41.15893 | 4.52527 | 33928 ft | 485 kts | 4° |
| 2026-05-04 15:42 | 41.22528 | 4.54148 | 33929 ft | 485 kts | 4° |
| 2026-05-04 15:43 | 41.26942 | 4.55228 | 33948 ft | 484 kts | 4° |
| 2026-05-04 15:43 | 41.33574 | 4.56853 | 33930 ft | 485 kts | 4° |
| 2026-05-04 15:44 | 41.40202 | 4.58481 | 33925 ft | 484 kts | 4° |
| 2026-05-04 15:44 | 41.46825 | 4.60111 | 33927 ft | 484 kts | 4° |
| 2026-05-04 15:45 | 41.53450 | 4.61744 | 33930 ft | 485 kts | 4° |
| 2026-05-04 15:45 | 41.60081 | 4.63383 | 33925 ft | 485 kts | 4° |
| 2026-05-04 15:46 | 41.66713 | 4.65026 | 33930 ft | 485 kts | 4° |
| 2026-05-04 15:46 | 41.73337 | 4.66876 | 33922 ft | 491 kts | 12° |
| 2026-05-04 15:47 | 41.79617 | 4.70617 | 33931 ft | 496 kts | 23° |
| 2026-05-04 15:47 | 41.85751 | 4.74859 | 33928 ft | 496 kts | 24° |
| 2026-05-04 15:48 | 41.91890 | 4.79082 | 33947 ft | 495 kts | 23° |
| 2026-05-04 15:48 | 42.01062 | 4.85283 | 33927 ft | 494 kts | 22° |
| 2026-05-04 15:49 | 42.07195 | 4.89415 | 33939 ft | 492 kts | 22° |
| 2026-05-04 15:49 | 42.13309 | 4.93546 | 33950 ft | 491 kts | 22° |
| 2026-05-04 15:50 | 42.19406 | 4.97678 | 33928 ft | 489 kts | 22° |
| 2026-05-04 15:50 | 42.25481 | 5.01805 | 33936 ft | 488 kts | 22° |
| 2026-05-04 15:51 | 42.31544 | 5.05932 | 33960 ft | 487 kts | 22° |
| 2026-05-04 15:51 | 42.37597 | 5.10061 | 33952 ft | 487 kts | 22° |
| 2026-05-04 15:52 | 42.43652 | 5.14201 | 33952 ft | 487 kts | 22° |
| 2026-05-04 15:52 | 42.49703 | 5.18347 | 33975 ft | 488 kts | 22° |
| 2026-05-04 15:53 | 42.55759 | 5.22505 | 33973 ft | 488 kts | 22° |
| 2026-05-04 15:53 | 42.61818 | 5.26675 | 33964 ft | 488 kts | 22° |
| 2026-05-04 15:54 | 42.67873 | 5.30851 | 33962 ft | 488 kts | 22° |
| 2026-05-04 15:54 | 42.73929 | 5.35038 | 33962 ft | 488 kts | 22° |
| 2026-05-04 15:55 | 42.79976 | 5.39227 | 33974 ft | 488 kts | 22° |
| 2026-05-04 15:55 | 42.86024 | 5.43426 | 33979 ft | 488 kts | 22° |
| 2026-05-04 15:56 | 42.92064 | 5.47629 | 33993 ft | 488 kts | 22° |
| 2026-05-04 15:56 | 42.97091 | 5.51133 | 33987 ft | 488 kts | 22° |
| 2026-05-04 15:57 | 43.03126 | 5.55351 | 33988 ft | 487 kts | 22° |
| 2026-05-04 15:57 | 43.09163 | 5.59578 | 33980 ft | 487 kts | 22° |
| 2026-05-04 15:58 | 43.15184 | 5.63803 | 33994 ft | 486 kts | 23° |
| 2026-05-04 15:58 | 43.21199 | 5.68034 | 34004 ft | 485 kts | 23° |
| 2026-05-04 15:59 | 43.27201 | 5.72266 | 33986 ft | 485 kts | 22° |
| 2026-05-04 15:59 | 43.33200 | 5.76504 | 34005 ft | 485 kts | 23° |
| 2026-05-04 16:00 | 43.39189 | 5.80744 | 34008 ft | 483 kts | 23° |
| 2026-05-04 16:00 | 43.45162 | 5.84984 | 34012 ft | 483 kts | 23° |
| 2026-05-04 16:01 | 43.51125 | 5.89225 | 34022 ft | 482 kts | 23° |
| 2026-05-04 16:01 | 43.57088 | 5.93475 | 34011 ft | 482 kts | 23° |
| 2026-05-04 16:02 | 43.63047 | 5.97733 | 34024 ft | 482 kts | 23° |
| 2026-05-04 16:03 | 43.71986 | 6.04139 | 34035 ft | 482 kts | 24° |
| 2026-05-04 16:03 | 43.77946 | 6.08416 | 34033 ft | 483 kts | 23° |
| 2026-05-04 16:04 | 43.83925 | 6.12526 | 34032 ft | 482 kts | 21° |
| 2026-05-04 16:04 | 43.92968 | 6.18626 | 34041 ft | 482 kts | 22° |
| 2026-05-04 16:05 | 43.98984 | 6.22726 | 34034 ft | 482 kts | 22° |
| 2026-05-04 16:06 | 44.07995 | 6.28908 | 34069 ft | 481 kts | 22° |
| 2026-05-04 16:07 | 44.19990 | 6.37166 | 34037 ft | 480 kts | 22° |
| 2026-05-04 16:08 | 44.31922 | 6.45420 | 34059 ft | 476 kts | 22° |
| 2026-05-04 16:09 | 44.46693 | 6.55686 | 34060 ft | 474 kts | 22° |
| 2026-05-04 16:10 | 44.58465 | 6.63909 | 34079 ft | 472 kts | 22° |
| 2026-05-04 16:11 | 44.70216 | 6.72150 | 34113 ft | 473 kts | 22° |
| 2026-05-04 16:12 | 44.79178 | 6.77812 | 34121 ft | 466 kts | 9° |
| 2026-05-04 16:12 | 44.88655 | 6.78640 | 34144 ft | 452 kts | 350° |
| 2026-05-04 16:13 | 45.01176 | 6.77658 | 34135 ft | 452 kts | 351° |
| 2026-05-04 16:14 | 45.13784 | 6.76816 | 34115 ft | 453 kts | 351° |
| 2026-05-04 16:16 | 45.29479 | 6.75774 | 34103 ft | 451 kts | 351° |
| 2026-05-04 16:17 | 45.45112 | 6.75487 | 34082 ft | 458 kts | 8° |
| 2026-05-04 16:18 | 45.53880 | 6.81183 | 34112 ft | 467 kts | 27° |
| 2026-05-04 16:18 | 45.56661 | 6.83578 | 34098 ft | 468 kts | 28° |
| 2026-05-04 16:19 | 45.70603 | 6.95360 | 34116 ft | 465 kts | 27° |
| 2026-05-04 16:20 | 45.84593 | 7.07066 | 34117 ft | 467 kts | 27° |
| 2026-05-04 16:22 | 45.98559 | 7.18840 | 34089 ft | 466 kts | 28° |
| 2026-05-04 16:23 | 46.15274 | 7.33033 | 34066 ft | 462 kts | 29° |
| 2026-05-04 16:25 | 46.31801 | 7.47164 | 34049 ft | 460 kts | 29° |
| 2026-05-04 16:26 | 46.42977 | 7.56778 | 34659 ft | 469 kts | 29° |
| 2026-05-04 16:26 | 46.51403 | 7.64058 | 35045 ft | 473 kts | 29° |
| 2026-05-04 16:28 | 46.65522 | 7.75822 | 35031 ft | 464 kts | 25° |
| 2026-05-04 16:29 | 46.85571 | 7.91083 | 35012 ft | 465 kts | 26° |
| 2026-05-04 16:31 | 46.99910 | 8.02204 | 34982 ft | 468 kts | 26° |
| 2026-05-04 16:32 | 47.17163 | 8.15669 | 34988 ft | 468 kts | 27° |
| 2026-05-04 16:33 | 47.28650 | 8.24689 | 34990 ft | 468 kts | 27° |
| 2026-05-04 16:34 | 47.37228 | 8.31454 | 34982 ft | 467 kts | 27° |
| 2026-05-04 16:35 | 47.54300 | 8.44994 | 34991 ft | 461 kts | 27° |
| 2026-05-04 16:36 | 47.62767 | 8.51747 | 34988 ft | 460 kts | 27° |
| 2026-05-04 16:37 | 47.71186 | 8.58486 | 34984 ft | 460 kts | 27° |
| 2026-05-04 16:38 | 47.82466 | 8.67555 | 34950 ft | 462 kts | 27° |
| 2026-05-04 16:39 | 47.96599 | 8.78981 | 34958 ft | 463 kts | 28° |
| 2026-05-04 16:40 | 48.07944 | 8.88206 | 34960 ft | 464 kts | 28° |
| 2026-05-04 16:41 | 48.22230 | 8.99258 | 34955 ft | 464 kts | 22° |
| 2026-05-04 16:43 | 48.37017 | 9.09028 | 34952 ft | 463 kts | 22° |
| 2026-05-04 16:43 | 48.44824 | 9.14322 | 34952 ft | 462 kts | 23° |
| 2026-05-04 16:45 | 48.62410 | 9.26134 | 34961 ft | 460 kts | 16° |
| 2026-05-04 16:46 | 48.77904 | 9.31284 | 34972 ft | 457 kts | 9° |
| 2026-05-04 16:47 | 48.90355 | 9.35384 | 34967 ft | 458 kts | 10° |
| 2026-05-04 16:48 | 49.02825 | 9.39567 | 34966 ft | 459 kts | 10° |
| 2026-05-04 16:49 | 49.15297 | 9.43767 | 34978 ft | 458 kts | 9° |
| 2026-05-04 16:50 | 49.27743 | 9.47979 | 34971 ft | 457 kts | 9° |
| 2026-05-04 16:51 | 49.37054 | 9.51145 | 34969 ft | 456 kts | 9° |
| 2026-05-04 16:52 | 49.49402 | 9.55362 | 34980 ft | 456 kts | 9° |
| 2026-05-04 16:53 | 49.58685 | 9.58546 | 34987 ft | 455 kts | 9° |
| 2026-05-04 16:54 | 49.71047 | 9.62807 | 34978 ft | 455 kts | 9° |
| 2026-05-04 16:55 | 49.89588 | 9.69239 | 34968 ft | 455 kts | 9° |
| 2026-05-04 16:56 | 50.05002 | 9.74624 | 34978 ft | 454 kts | 9° |
| 2026-05-04 16:57 | 50.14238 | 9.77868 | 34954 ft | 453 kts | 9° |
| 2026-05-04 16:58 | 50.26546 | 9.82212 | 34956 ft | 453 kts | 9° |
| 2026-05-04 17:00 | 50.43801 | 9.92946 | 34945 ft | 462 kts | 51° |
| 2026-05-04 17:01 | 50.53243 | 10.13427 | 34950 ft | 464 kts | 53° |
| 2026-05-04 17:02 | 50.60888 | 10.29848 | 34940 ft | 466 kts | 53° |
| 2026-05-04 17:03 | 50.66623 | 10.42211 | 34961 ft | 466 kts | 53° |
| 2026-05-04 17:03 | 50.72347 | 10.54617 | 34969 ft | 467 kts | 53° |
| 2026-05-04 17:04 | 50.79960 | 10.71205 | 34963 ft | 466 kts | 53° |
| 2026-05-04 17:05 | 50.88440 | 10.86615 | 34972 ft | 464 kts | 46° |
| 2026-05-04 17:06 | 50.94993 | 10.97898 | 34968 ft | 463 kts | 46° |
| 2026-05-04 17:07 | 51.00737 | 11.08003 | 34968 ft | 463 kts | 47° |
| 2026-05-04 17:07 | 51.05735 | 11.16858 | 34972 ft | 463 kts | 46° |
| 2026-05-04 17:08 | 51.12174 | 11.28306 | 34961 ft | 463 kts | 46° |
| 2026-05-04 17:09 | 51.16469 | 11.35968 | 34971 ft | 464 kts | 47° |
| 2026-05-04 17:09 | 51.20762 | 11.43649 | 34965 ft | 464 kts | 47° |
| 2026-05-04 17:10 | 51.31489 | 11.62947 | 34967 ft | 465 kts | 47° |
| 2026-05-04 17:11 | 51.35780 | 11.70706 | 34963 ft | 466 kts | 47° |
| 2026-05-04 17:12 | 51.42181 | 11.82328 | 34964 ft | 466 kts | 47° |
| 2026-05-04 17:13 | 51.52888 | 12.01885 | 34966 ft | 467 kts | 47° |
| 2026-05-04 17:14 | 51.61477 | 12.17570 | 34956 ft | 466 kts | 44° |
| 2026-05-04 17:15 | 51.68393 | 12.28560 | 34954 ft | 465 kts | 41° |
| 2026-05-04 17:16 | 51.77650 | 12.43173 | 34958 ft | 466 kts | 42° |
| 2026-05-04 17:17 | 51.86815 | 12.57949 | 34962 ft | 465 kts | 43° |
| 2026-05-04 17:18 | 51.95965 | 12.72793 | 34952 ft | 466 kts | 43° |
| 2026-05-04 17:19 | 52.05095 | 12.87691 | 34938 ft | 465 kts | 43° |
| 2026-05-04 17:20 | 52.14204 | 13.02648 | 34943 ft | 465 kts | 43° |
| 2026-05-04 17:20 | 52.21024 | 13.13906 | 34941 ft | 465 kts | 43° |
| 2026-05-04 17:21 | 52.30076 | 13.28931 | 34945 ft | 466 kts | 43° |
| 2026-05-04 17:22 | 52.34618 | 13.36504 | 34940 ft | 466 kts | 43° |
| 2026-05-04 17:23 | 52.43686 | 13.51696 | 34939 ft | 466 kts | 43° |
| 2026-05-04 17:24 | 52.50463 | 13.63112 | 34946 ft | 465 kts | 43° |
| 2026-05-04 17:25 | 52.59472 | 13.78371 | 34938 ft | 465 kts | 43° |
| 2026-05-04 17:26 | 52.68425 | 13.93632 | 34941 ft | 464 kts | 43° |
| 2026-05-04 17:27 | 52.79615 | 14.12843 | 34944 ft | 464 kts | 43° |
| 2026-05-04 17:28 | 52.88538 | 14.28269 | 34946 ft | 464 kts | 43° |
| 2026-05-04 17:29 | 53.00714 | 14.53411 | 34944 ft | 467 kts | 50° |
| 2026-05-04 17:31 | 53.10663 | 14.74734 | 34950 ft | 467 kts | 49° |
| 2026-05-04 17:32 | 53.20627 | 14.96159 | 34939 ft | 468 kts | 49° |
| 2026-05-04 17:33 | 53.25835 | 15.07449 | 34268 ft | 454 kts | 49° |
| 2026-05-04 17:33 | 53.27752 | 15.11614 | 33903 ft | 451 kts | 49° |
| 2026-05-04 17:34 | 53.34024 | 15.25287 | 32614 ft | 440 kts | 49° |
| 2026-05-04 17:34 | 53.35280 | 15.28034 | 32370 ft | 438 kts | 49° |
| 2026-05-04 17:35 | 53.40770 | 15.40075 | 31298 ft | 429 kts | 49° |
| 2026-05-04 17:35 | 53.44363 | 15.47989 | 30607 ft | 424 kts | 49° |
| 2026-05-04 17:35 | 53.46144 | 15.51919 | 30270 ft | 422 kts | 49° |
| 2026-05-04 17:36 | 53.47889 | 15.55778 | 29926 ft | 420 kts | 49° |
| 2026-05-04 17:36 | 53.49671 | 15.59723 | 29538 ft | 418 kts | 49° |
| 2026-05-04 17:36 | 53.51396 | 15.63548 | 29150 ft | 415 kts | 49° |
| 2026-05-04 17:36 | 53.53131 | 15.67402 | 28802 ft | 411 kts | 49° |
| 2026-05-04 17:37 | 53.54849 | 15.71225 | 28432 ft | 408 kts | 50° |
| 2026-05-04 17:37 | 53.56550 | 15.75016 | 28115 ft | 404 kts | 50° |
| 2026-05-04 17:37 | 53.58236 | 15.78777 | 27751 ft | 401 kts | 50° |
| 2026-05-04 17:37 | 53.59930 | 15.82563 | 27405 ft | 398 kts | 50° |
| 2026-05-04 17:38 | 53.61573 | 15.86239 | 27063 ft | 396 kts | 50° |
| 2026-05-04 17:38 | 53.63224 | 15.89939 | 26725 ft | 393 kts | 50° |
| 2026-05-04 17:38 | 53.64861 | 15.93614 | 26382 ft | 391 kts | 50° |
| 2026-05-04 17:38 | 53.66488 | 15.97270 | 26047 ft | 389 kts | 50° |
| 2026-05-04 17:39 | 53.69711 | 16.04530 | 25388 ft | 385 kts | 50° |
| 2026-05-04 17:39 | 53.71312 | 16.08145 | 25050 ft | 383 kts | 50° |
| 2026-05-04 17:39 | 53.72903 | 16.11742 | 24717 ft | 382 kts | 50° |
| 2026-05-04 17:40 | 53.74488 | 16.15330 | 24383 ft | 381 kts | 50° |
| 2026-05-04 17:40 | 53.76068 | 16.18912 | 24052 ft | 379 kts | 50° |
| 2026-05-04 17:40 | 53.77639 | 16.22479 | 23724 ft | 378 kts | 51° |
| 2026-05-04 17:40 | 53.79206 | 16.26041 | 23359 ft | 377 kts | 51° |
| 2026-05-04 17:41 | 53.80769 | 16.29601 | 22979 ft | 376 kts | 51° |
| 2026-05-04 17:41 | 53.82321 | 16.33141 | 22627 ft | 373 kts | 51° |
| 2026-05-04 17:41 | 53.83862 | 16.36660 | 22288 ft | 371 kts | 51° |
| 2026-05-04 17:41 | 53.85393 | 16.40162 | 21959 ft | 369 kts | 51° |
| 2026-05-04 17:42 | 53.86912 | 16.43642 | 21630 ft | 366 kts | 51° |
| 2026-05-04 17:42 | 53.88423 | 16.47103 | 21309 ft | 364 kts | 51° |
| 2026-05-04 17:42 | 53.89926 | 16.50553 | 20984 ft | 363 kts | 51° |
| 2026-05-04 17:42 | 53.91418 | 16.53985 | 20659 ft | 361 kts | 51° |
| 2026-05-04 17:43 | 53.92848 | 16.57481 | 20335 ft | 360 kts | 54° |
| 2026-05-04 17:43 | 53.94214 | 16.61024 | 20016 ft | 358 kts | 55° |
| 2026-05-04 17:43 | 53.95559 | 16.64570 | 19701 ft | 357 kts | 55° |
| 2026-05-04 17:43 | 53.96882 | 16.68060 | 19388 ft | 355 kts | 55° |
| 2026-05-04 17:44 | 53.98220 | 16.71576 | 19077 ft | 354 kts | 54° |
| 2026-05-04 17:44 | 53.99558 | 16.75085 | 18763 ft | 353 kts | 54° |
| 2026-05-04 17:44 | 54.00893 | 16.78577 | 18449 ft | 352 kts | 54° |
| 2026-05-04 17:44 | 54.02224 | 16.82060 | 18114 ft | 351 kts | 54° |
| 2026-05-04 17:45 | 54.03550 | 16.85534 | 17758 ft | 349 kts | 55° |
| 2026-05-04 17:45 | 54.04868 | 16.88989 | 17422 ft | 348 kts | 55° |
| 2026-05-04 17:45 | 54.06181 | 16.92433 | 17102 ft | 345 kts | 55° |
| 2026-05-04 17:45 | 54.07483 | 16.95856 | 16799 ft | 344 kts | 55° |
| 2026-05-04 17:46 | 54.08774 | 16.99266 | 16489 ft | 342 kts | 57° |
| 2026-05-04 17:46 | 54.09754 | 17.02950 | 16163 ft | 341 kts | 75° |
| 2026-05-04 17:46 | 54.10140 | 17.06899 | 15926 ft | 336 kts | 85° |
| 2026-05-04 17:46 | 54.10357 | 17.10858 | 15615 ft | 335 kts | 86° |
| 2026-05-04 17:47 | 54.10550 | 17.14801 | 15300 ft | 333 kts | 86° |
| 2026-05-04 17:47 | 54.10745 | 17.18730 | 14996 ft | 332 kts | 86° |
| 2026-05-04 17:47 | 54.10946 | 17.22637 | 14696 ft | 331 kts | 86° |
| 2026-05-04 17:47 | 54.11154 | 17.26530 | 14396 ft | 329 kts | 86° |
| 2026-05-04 17:48 | 54.11364 | 17.30412 | 14095 ft | 328 kts | 86° |
| 2026-05-04 17:48 | 54.11575 | 17.34272 | 13793 ft | 327 kts | 86° |
| 2026-05-04 17:48 | 54.11785 | 17.38128 | 13455 ft | 326 kts | 86° |
| 2026-05-04 17:48 | 54.11995 | 17.41967 | 13124 ft | 325 kts | 86° |
| 2026-05-04 17:49 | 54.12203 | 17.45790 | 12814 ft | 323 kts | 86° |
| 2026-05-04 17:49 | 54.12408 | 17.49594 | 12506 ft | 321 kts | 86° |
| 2026-05-04 17:49 | 54.12612 | 17.53382 | 12197 ft | 320 kts | 85° |
| 2026-05-04 17:49 | 54.12917 | 17.57130 | 11897 ft | 319 kts | 81° |
| 2026-05-04 17:50 | 54.13311 | 17.60843 | 11589 ft | 318 kts | 80° |
| 2026-05-04 17:50 | 54.13722 | 17.64537 | 11278 ft | 317 kts | 80° |
| 2026-05-04 17:50 | 54.14129 | 17.68219 | 10991 ft | 315 kts | 80° |
| 2026-05-04 17:50 | 54.14528 | 17.71885 | 10696 ft | 314 kts | 80° |
| 2026-05-04 17:51 | 54.14918 | 17.75535 | 10389 ft | 313 kts | 81° |
| 2026-05-04 17:51 | 54.15303 | 17.79181 | 10109 ft | 312 kts | 81° |
| 2026-05-04 17:51 | 54.15683 | 17.82815 | 9807 ft | 311 kts | 81° |
| 2026-05-04 17:51 | 54.16060 | 17.86440 | 9485 ft | 310 kts | 81° |
| 2026-05-04 17:52 | 54.16433 | 17.90051 | 9166 ft | 309 kts | 81° |
| 2026-05-04 17:52 | 54.16804 | 17.93649 | 8866 ft | 307 kts | 81° |
| 2026-05-04 17:52 | 54.17171 | 17.97233 | 8569 ft | 306 kts | 81° |
| 2026-05-04 17:52 | 54.17537 | 18.00805 | 8291 ft | 305 kts | 80° |
| 2026-05-04 17:53 | 54.17900 | 18.04362 | 7992 ft | 304 kts | 80° |
| 2026-05-04 17:53 | 54.18261 | 18.07905 | 7704 ft | 303 kts | 80° |
| 2026-05-04 17:53 | 54.18619 | 18.11440 | 7410 ft | 301 kts | 80° |
| 2026-05-04 17:53 | 54.18974 | 18.14957 | 7122 ft | 300 kts | 80° |
| 2026-05-04 17:54 | 54.19327 | 18.18460 | 6897 ft | 297 kts | 80° |
| 2026-05-04 17:54 | 54.19673 | 18.21918 | 6777 ft | 295 kts | 80° |
| 2026-05-04 17:54 | 54.20015 | 18.25331 | 6651 ft | 296 kts | 80° |
| 2026-05-04 17:54 | 54.20366 | 18.28853 | 6514 ft | 298 kts | 80° |
| 2026-05-04 17:55 | 54.20708 | 18.32298 | 6367 ft | 298 kts | 80° |
| 2026-05-04 17:55 | 54.21057 | 18.35797 | 6218 ft | 300 kts | 81° |
| 2026-05-04 17:55 | 54.21410 | 18.39369 | 6068 ft | 301 kts | 81° |
| 2026-05-04 17:55 | 54.21757 | 18.42888 | 5917 ft | 299 kts | 80° |
| 2026-05-04 17:56 | 54.22100 | 18.46373 | 5761 ft | 294 kts | 80° |
| 2026-05-04 17:56 | 54.22436 | 18.49804 | 5627 ft | 292 kts | 80° |
| 2026-05-04 17:56 | 54.22768 | 18.53204 | 5473 ft | 287 kts | 80° |
| 2026-05-04 17:56 | 54.23091 | 18.56524 | 5342 ft | 280 kts | 81° |
| 2026-05-04 17:57 | 54.23406 | 18.59773 | 5207 ft | 274 kts | 80° |
| 2026-05-04 17:57 | 54.23712 | 18.62912 | 5068 ft | 268 kts | 79° |
| 2026-05-04 17:57 | 54.24376 | 18.65800 | 4876 ft | 259 kts | 48° |
| 2026-05-04 17:57 | 54.25664 | 18.67833 | 4604 ft | 249 kts | 31° |
| 2026-05-04 17:58 | 54.27076 | 18.69512 | 4234 ft | 245 kts | 28° |
| 2026-05-04 17:58 | 54.28468 | 18.71121 | 3880 ft | 237 kts | 28° |
| 2026-05-04 17:58 | 54.29912 | 18.72209 | 3538 ft | 218 kts | 357° |
| 2026-05-04 17:58 | 54.31237 | 18.71567 | 3287 ft | 189 kts | 313° |
| 2026-05-04 17:59 | 54.31899 | 18.69780 | 3117 ft | 174 kts | 292° |
| 2026-05-04 17:59 | 54.32492 | 18.67987 | 2875 ft | 171 kts | 296° |
| 2026-05-04 17:59 | 54.33435 | 18.64248 | 2413 ft | 172 kts | 290° |
| 2026-05-04 18:00 | 54.33897 | 18.62352 | 2183 ft | 171 kts | 290° |
| 2026-05-04 18:00 | 54.34351 | 18.60494 | 1949 ft | 166 kts | 290° |
| 2026-05-04 18:00 | 54.34782 | 18.58738 | 1738 ft | 154 kts | 290° |
| 2026-05-04 18:00 | 54.35174 | 18.57140 | 1531 ft | 139 kts | 290° |
| 2026-05-04 18:01 | 54.35544 | 18.55631 | 1352 ft | 137 kts | 290° |
| 2026-05-04 18:01 | 54.35915 | 18.54117 | 1166 ft | 139 kts | 291° |
| 2026-05-04 18:01 | 54.36287 | 18.52569 | 1000 ft | 140 kts | 291° |
| 2026-05-04 18:02 | 54.37054 | 18.49462 | 579 ft | 140 kts | 293° |
| 2026-05-04 18:02 | 54.37423 | 18.47968 | 470 ft | 122 kts | 293° |
| 2026-05-04 18:02 | 54.37641 | 18.47097 | 458 ft | 45 kts | 295° |
| 2026-05-04 18:02 | 54.37770 | 18.46810 | 456 ft | 15 kts | 319° |
| 2026-05-04 18:03 | 54.37840 | 18.46716 | 457 ft | 5 kts | 324° |
| 2026-05-04 18:03 | 54.37871 | 18.46678 | 458 ft | 5 kts | 324° |
| 2026-05-04 18:03 | 54.37902 | 18.46640 | 458 ft | 6 kts | 323° |
| 2026-05-04 18:03 | 54.37940 | 18.46593 | 458 ft | 8 kts | 328° |
| 2026-05-04 18:04 | 54.37995 | 18.46590 | 458 ft | 8 kts | 21° |
| 2026-05-04 18:04 | 54.38049 | 18.46620 | 459 ft | 8 kts | 359° |
| 2026-05-04 18:04 | 54.38088 | 18.46542 | 458 ft | 0 kts | 325° |
| 2026-05-04 18:05 | 54.38095 | 18.46542 | 459 ft | 3 kts | 358° |
| 2026-05-04 18:05 | 54.38120 | 18.46554 | 459 ft | 3 kts | 22° |
| 2026-05-04 18:05 | 54.38130 | 18.46560 | 459 ft | 0 kts | 22° |